sensor_id;sensor_type;location;lat;lon;timestamp;pressure;altitude;pressure_sealevel;temperature;humidity
3254;BME280;1639;42.804;23.342;2023-03-18T00:01:46;74780.31;;;-148.52;88.30
3254;BME280;1639;42.804;23.342;2023-03-18T00:04:12;74792.72;;;-148.52;90.39
3254;BME280;1639;42.804;23.342;2023-03-18T00:06:37;74776.16;;;-148.52;93.59
3254;BME280;1639;42.804;23.342;2023-03-18T00:09:04;74796.84;;;-148.52;93.34
3254;BME280;1639;42.804;23.342;2023-03-18T00:11:29;74782.38;;;-148.52;98.10
3254;BME280;1639;42.804;23.342;2023-03-18T00:13:56;74759.59;;;-148.52;96.11
3254;BME280;1639;42.804;23.342;2023-03-18T00:16:22;74786.50;;;-148.52;96.45
3254;BME280;1639;42.804;23.342;2023-03-18T00:18:48;74786.50;;;-148.52;98.85
3254;BME280;1639;42.804;23.342;2023-03-18T00:21:14;74778.22;;;-148.52;97.71
3254;BME280;1639;42.804;23.342;2023-03-18T00:23:41;74780.31;;;-148.52;99.17
3254;BME280;1639;42.804;23.342;2023-03-18T00:26:07;74782.38;;;-148.52;100.00
3254;BME280;1639;42.804;23.342;2023-03-18T00:28:33;74782.38;;;-148.52;100.00
3254;BME280;1639;42.804;23.342;2023-03-18T00:31:04;74776.16;;;-148.52;100.00
3254;BME280;1639;42.804;23.342;2023-03-18T00:33:33;74786.50;;;-148.52;100.00
3254;BME280;1639;42.804;23.342;2023-03-18T00:35:58;74796.84;;;-148.52;100.00
3254;BME280;1639;42.804;23.342;2023-03-18T00:38:24;74790.66;;;-148.52;100.00
3254;BME280;1639;42.804;23.342;2023-03-18T00:40:51;74792.72;;;-148.52;100.00
3254;BME280;1639;42.804;23.342;2023-03-18T00:43:35;74803.06;;;-148.52;100.00
3254;BME280;1639;42.804;23.342;2023-03-18T00:46:11;74788.56;;;-148.52;100.00
3254;BME280;1639;42.804;23.342;2023-03-18T00:48:37;74786.50;;;-148.52;100.00
3254;BME280;1639;42.804;23.342;2023-03-18T00:51:03;74792.72;;;-148.52;100.00
3254;BME280;1639;42.804;23.342;2023-03-18T00:53:29;74805.13;;;-148.52;100.00
3254;BME280;1639;42.804;23.342;2023-03-18T00:55:54;74790.66;;;-148.52;100.00
3254;BME280;1639;42.804;23.342;2023-03-18T00:58:20;74794.78;;;-148.52;100.00
3254;BME280;1639;42.804;23.342;2023-03-18T01:00:45;74801.00;;;-148.52;100.00
3254;BME280;1639;42.804;23.342;2023-03-18T01:03:11;74803.06;;;-148.52;100.00
3254;BME280;1639;42.804;23.342;2023-03-18T01:05:38;74805.13;;;-148.52;100.00
3254;BME280;1639;42.804;23.342;2023-03-18T01:08:04;74811.34;;;-148.52;100.00
3254;BME280;1639;42.804;23.342;2023-03-18T01:10:30;74792.72;;;-148.52;100.00
3254;BME280;1639;42.804;23.342;2023-03-18T01:12:56;74792.72;;;-148.52;100.00
3254;BME280;1639;42.804;23.342;2023-03-18T01:15:22;74801.00;;;-148.52;100.00
3254;BME280;1639;42.804;23.342;2023-03-18T01:17:48;74801.00;;;-148.52;100.00
3254;BME280;1639;42.804;23.342;2023-03-18T01:20:15;74794.78;;;-148.52;100.00
3254;BME280;1639;42.804;23.342;2023-03-18T01:22:42;74807.19;;;-148.52;100.00
3254;BME280;1639;42.804;23.342;2023-03-18T01:25:10;74798.91;;;-148.52;100.00
3254;BME280;1639;42.804;23.342;2023-03-18T01:27:36;74796.84;;;-148.52;100.00
3254;BME280;1639;42.804;23.342;2023-03-18T01:30:03;74821.69;;;-148.52;100.00
3254;BME280;1639;42.804;23.342;2023-03-18T01:32:29;74811.34;;;-148.52;100.00
3254;BME280;1639;42.804;23.342;2023-03-18T01:34:54;74825.81;;;-148.52;100.00
3254;BME280;1639;42.804;23.342;2023-03-18T01:37:19;74825.81;;;-148.52;100.00
3254;BME280;1639;42.804;23.342;2023-03-18T01:39:45;74825.81;;;-148.52;100.00
3254;BME280;1639;42.804;23.342;2023-03-18T01:42:11;74842.38;;;-148.52;100.00
3254;BME280;1639;42.804;23.342;2023-03-18T01:44:37;74840.31;;;-148.52;100.00
3254;BME280;1639;42.804;23.342;2023-03-18T01:47:02;74838.25;;;-148.52;100.00
3254;BME280;1639;42.804;23.342;2023-03-18T01:49:36;74852.72;;;-148.52;100.00
3254;BME280;1639;42.804;23.342;2023-03-18T01:52:16;74848.59;;;-148.52;100.00
3254;BME280;1639;42.804;23.342;2023-03-18T01:54:47;74834.09;;;-148.52;100.00
3254;BME280;1639;42.804;23.342;2023-03-18T01:57:14;74829.97;;;-148.52;100.00
3254;BME280;1639;42.804;23.342;2023-03-18T01:59:42;74811.34;;;-148.52;100.00
3254;BME280;1639;42.804;23.342;2023-03-18T02:02:13;74811.34;;;-148.52;100.00
3254;BME280;1639;42.804;23.342;2023-03-18T02:04:46;74798.91;;;-148.52;100.00
3254;BME280;1639;42.804;23.342;2023-03-18T02:09:48;74767.88;;;-148.52;100.00
3254;BME280;1639;42.804;23.342;2023-03-18T02:12:20;74786.50;;;-148.52;98.03
3254;BME280;1639;42.804;23.342;2023-03-18T02:14:46;74794.78;;;-148.52;96.66
3254;BME280;1639;42.804;23.342;2023-03-18T02:17:15;74803.06;;;-148.52;100.00
3254;BME280;1639;42.804;23.342;2023-03-18T02:20:45;74796.84;;;-148.52;100.00
3254;BME280;1639;42.804;23.342;2023-03-18T02:22:54;74801.00;;;-148.52;100.00
3254;BME280;1639;42.804;23.342;2023-03-18T02:25:53;74796.84;;;-148.52;100.00
3254;BME280;1639;42.804;23.342;2023-03-18T02:28:25;74794.78;;;-148.52;100.00
3254;BME280;1639;42.804;23.342;2023-03-18T02:30:57;74805.13;;;-148.52;100.00
3254;BME280;1639;42.804;23.342;2023-03-18T02:33:28;74813.41;;;-148.52;100.00
3254;BME280;1639;42.804;23.342;2023-03-18T02:35:59;74817.53;;;-148.52;100.00
3254;BME280;1639;42.804;23.342;2023-03-18T02:38:25;74811.34;;;-148.52;100.00
3254;BME280;1639;42.804;23.342;2023-03-18T02:40:50;74805.13;;;-148.52;100.00
3254;BME280;1639;42.804;23.342;2023-03-18T02:43:29;74813.41;;;-148.52;100.00
3254;BME280;1639;42.804;23.342;2023-03-18T02:46:17;74809.28;;;-148.52;100.00
3254;BME280;1639;42.804;23.342;2023-03-18T02:48:45;74825.81;;;-148.52;100.00
3254;BME280;1639;42.804;23.342;2023-03-18T02:51:14;74823.75;;;-148.52;100.00
3254;BME280;1639;42.804;23.342;2023-03-18T02:53:41;74834.09;;;-148.52;100.00
3254;BME280;1639;42.804;23.342;2023-03-18T02:56:08;74827.88;;;-148.52;100.00
3254;BME280;1639;42.804;23.342;2023-03-18T02:58:34;74825.81;;;-148.52;100.00
3254;BME280;1639;42.804;23.342;2023-03-18T03:01:00;74821.69;;;-148.52;96.66
3254;BME280;1639;42.804;23.342;2023-03-18T03:03:26;74829.97;;;-148.52;95.10
3254;BME280;1639;42.804;23.342;2023-03-18T03:05:53;74834.09;;;-148.52;94.47
3254;BME280;1639;42.804;23.342;2023-03-18T03:08:19;74850.66;;;-148.52;94.38
3254;BME280;1639;42.804;23.342;2023-03-18T03:10:44;74852.72;;;-148.52;92.39
3254;BME280;1639;42.804;23.342;2023-03-18T03:13:10;74852.72;;;-148.52;93.51
3254;BME280;1639;42.804;23.342;2023-03-18T03:15:38;74842.38;;;-148.52;91.22
3254;BME280;1639;42.804;23.342;2023-03-18T03:18:04;74840.31;;;-148.52;87.99
3254;BME280;1639;42.804;23.342;2023-03-18T03:20:31;74850.66;;;-148.52;87.05
3254;BME280;1639;42.804;23.342;2023-03-18T03:23:02;74846.50;;;-148.52;87.90
3254;BME280;1639;42.804;23.342;2023-03-18T03:25:28;74846.50;;;-148.52;86.39
3254;BME280;1639;42.804;23.342;2023-03-18T03:27:54;74858.94;;;-148.52;85.86
3254;BME280;1639;42.804;23.342;2023-03-18T03:30:20;74869.28;;;-148.52;86.50
3254;BME280;1639;42.804;23.342;2023-03-18T03:32:47;74861.00;;;-148.52;87.21
3254;BME280;1639;42.804;23.342;2023-03-18T03:35:14;74861.00;;;-148.52;85.94
3254;BME280;1639;42.804;23.342;2023-03-18T03:37:40;74910.66;;;-148.52;87.49
3254;BME280;1639;42.804;23.342;2023-03-18T03:40:07;74906.53;;;-148.52;89.04
3254;BME280;1639;42.804;23.342;2023-03-18T03:42:32;74910.66;;;-148.52;90.62
3254;BME280;1639;42.804;23.342;2023-03-18T03:44:58;74908.59;;;-148.52;89.24
3254;BME280;1639;42.804;23.342;2023-03-18T03:47:24;74925.16;;;-148.52;89.18
3254;BME280;1639;42.804;23.342;2023-03-18T03:49:50;74914.78;;;-148.52;89.98
3254;BME280;1639;42.804;23.342;2023-03-18T03:52:16;74912.72;;;-148.52;88.45
3254;BME280;1639;42.804;23.342;2023-03-18T03:54:44;74910.66;;;-148.52;89.13
3254;BME280;1639;42.804;23.342;2023-03-18T03:57:09;74918.94;;;-148.52;89.13
3254;BME280;1639;42.804;23.342;2023-03-18T03:59:36;74923.06;;;-148.52;89.18
3254;BME280;1639;42.804;23.342;2023-03-18T04:02:01;74931.34;;;-148.52;91.26
3254;BME280;1639;42.804;23.342;2023-03-18T04:04:27;74945.84;;;-148.52;92.65
3254;BME280;1639;42.804;23.342;2023-03-18T04:06:52;74923.06;;;-148.52;92.20
3254;BME280;1639;42.804;23.342;2023-03-18T04:09:18;74939.63;;;-148.52;89.88
3254;BME280;1639;42.804;23.342;2023-03-18T04:11:43;74937.56;;;-148.52;92.43
3254;BME280;1639;42.804;23.342;2023-03-18T04:14:09;74943.75;;;-148.52;92.52
3254;BME280;1639;42.804;23.342;2023-03-18T04:16:34;74962.38;;;-148.52;88.81
3254;BME280;1639;42.804;23.342;2023-03-18T04:19:00;74989.28;;;-148.52;89.23
3254;BME280;1639;42.804;23.342;2023-03-18T04:21:25;74993.44;;;-148.52;90.68
3254;BME280;1639;42.804;23.342;2023-03-18T04:23:51;74989.28;;;-148.52;92.80
3254;BME280;1639;42.804;23.342;2023-03-18T04:26:17;74991.34;;;-148.52;93.45
3254;BME280;1639;42.804;23.342;2023-03-18T04:28:43;74999.63;;;-148.52;95.87
3254;BME280;1639;42.804;23.342;2023-03-18T04:31:08;74999.63;;;-148.52;100.00
3254;BME280;1639;42.804;23.342;2023-03-18T04:33:33;75001.69;;;-148.52;100.00
3254;BME280;1639;42.804;23.342;2023-03-18T04:35:59;75012.06;;;-148.52;100.00
3254;BME280;1639;42.804;23.342;2023-03-18T04:38:24;75001.69;;;-148.52;100.00
3254;BME280;1639;42.804;23.342;2023-03-18T04:40:50;74999.63;;;-148.52;100.00
3254;BME280;1639;42.804;23.342;2023-03-18T04:43:15;75014.13;;;-148.52;100.00
3254;BME280;1639;42.804;23.342;2023-03-18T04:45:41;75012.06;;;-148.52;100.00
3254;BME280;1639;42.804;23.342;2023-03-18T04:48:07;75014.13;;;-148.52;100.00
3254;BME280;1639;42.804;23.342;2023-03-18T04:50:33;75012.06;;;-148.52;100.00
3254;BME280;1639;42.804;23.342;2023-03-18T04:52:58;75003.78;;;-148.52;100.00
3254;BME280;1639;42.804;23.342;2023-03-18T04:55:24;74993.44;;;-148.52;100.00
3254;BME280;1639;42.804;23.342;2023-03-18T04:57:49;74987.22;;;-148.52;97.88
3254;BME280;1639;42.804;23.342;2023-03-18T05:00:18;74987.22;;;-148.52;93.63
3254;BME280;1639;42.804;23.342;2023-03-18T05:02:46;74999.63;;;-148.52;98.20
3254;BME280;1639;42.804;23.342;2023-03-18T05:05:12;74987.22;;;-148.52;100.00
3254;BME280;1639;42.804;23.342;2023-03-18T05:07:38;74970.66;;;-148.52;100.00
3254;BME280;1639;42.804;23.342;2023-03-18T05:10:04;74954.09;;;-148.52;100.00
3254;BME280;1639;42.804;23.342;2023-03-18T05:12:31;74937.56;;;-148.52;100.00
3254;BME280;1639;42.804;23.342;2023-03-18T05:14:56;74916.88;;;-148.52;100.00
3254;BME280;1639;42.804;23.342;2023-03-18T05:17:22;74908.59;;;-148.52;100.00
3254;BME280;1639;42.804;23.342;2023-03-18T05:19:48;74912.72;;;-148.52;100.00
3254;BME280;1639;42.804;23.342;2023-03-18T05:22:15;74904.44;;;-148.52;100.00
3254;BME280;1639;42.804;23.342;2023-03-18T05:24:42;74875.47;;;-148.52;100.00
3254;BME280;1639;42.804;23.342;2023-03-18T05:27:08;74854.78;;;-148.52;100.00
3254;BME280;1639;42.804;23.342;2023-03-18T05:29:36;74852.72;;;-148.52;99.38
3254;BME280;1639;42.804;23.342;2023-03-18T05:32:03;74821.69;;;-148.52;98.83
3254;BME280;1639;42.804;23.342;2023-03-18T05:34:32;74805.13;;;-148.52;97.31
3254;BME280;1639;42.804;23.342;2023-03-18T05:36:57;74805.13;;;-148.52;96.09
3254;BME280;1639;42.804;23.342;2023-03-18T05:39:23;74790.66;;;-148.52;93.73
3254;BME280;1639;42.804;23.342;2023-03-18T05:41:48;74786.50;;;-148.52;91.14
3254;BME280;1639;42.804;23.342;2023-03-18T05:44:14;74782.38;;;-148.52;89.92
3254;BME280;1639;42.804;23.342;2023-03-18T05:46:39;74792.72;;;-148.52;87.00
3254;BME280;1639;42.804;23.342;2023-03-18T05:49:04;74796.84;;;-148.52;86.68
3254;BME280;1639;42.804;23.342;2023-03-18T05:51:30;74801.00;;;-148.52;86.83
3254;BME280;1639;42.804;23.342;2023-03-18T05:53:56;74796.84;;;-148.52;87.42
3254;BME280;1639;42.804;23.342;2023-03-18T05:56:22;74788.56;;;-148.52;87.80
3254;BME280;1639;42.804;23.342;2023-03-18T05:58:49;74772.03;;;-148.52;88.08
3254;BME280;1639;42.804;23.342;2023-03-18T06:01:15;74763.75;;;-148.52;88.48
3254;BME280;1639;42.804;23.342;2023-03-18T06:03:40;74774.09;;;-148.52;89.11
3254;BME280;1639;42.804;23.342;2023-03-18T06:06:07;74753.41;;;-148.52;90.07
3254;BME280;1639;42.804;23.342;2023-03-18T06:08:33;74747.19;;;-148.52;89.55
3254;BME280;1639;42.804;23.342;2023-03-18T06:10:58;74743.06;;;-148.52;88.56
3254;BME280;1639;42.804;23.342;2023-03-18T06:13:24;74730.63;;;-148.52;89.35
3254;BME280;1639;42.804;23.342;2023-03-18T06:15:55;74722.38;;;-148.52;90.28
3254;BME280;1639;42.804;23.342;2023-03-18T06:18:21;74697.53;;;-148.52;88.73
3254;BME280;1639;42.804;23.342;2023-03-18T06:20:46;74674.78;;;-148.52;88.01
3254;BME280;1639;42.804;23.342;2023-03-18T06:23:12;74641.66;;;-148.52;92.44
3254;BME280;1639;42.804;23.342;2023-03-18T06:25:38;74631.31;;;-148.52;88.79
3254;BME280;1639;42.804;23.342;2023-03-18T06:28:05;74616.84;;;-148.52;87.16
3254;BME280;1639;42.804;23.342;2023-03-18T06:30:32;74614.78;;;-148.52;85.94
3254;BME280;1639;42.804;23.342;2023-03-18T06:32:58;74575.47;;;-148.52;89.47
3254;BME280;1639;42.804;23.342;2023-03-18T06:35:24;74565.13;;;-148.52;85.81
3254;BME280;1639;42.804;23.342;2023-03-18T06:37:51;74552.69;;;-148.52;83.65
3254;BME280;1639;42.804;23.342;2023-03-18T06:40:17;74546.50;;;-148.52;83.92
3254;BME280;1639;42.804;23.342;2023-03-18T06:42:43;74527.88;;;-148.52;83.06
3254;BME280;1639;42.804;23.342;2023-03-18T06:45:10;74525.81;;;-148.52;82.98
3254;BME280;1639;42.804;23.342;2023-03-18T06:47:36;74525.81;;;-148.52;82.21
3254;BME280;1639;42.804;23.342;2023-03-18T06:50:01;74517.53;;;-148.52;81.70
3254;BME280;1639;42.804;23.342;2023-03-18T06:52:27;74503.03;;;-148.52;82.74
3254;BME280;1639;42.804;23.342;2023-03-18T06:54:53;74457.53;;;-148.52;83.72
3254;BME280;1639;42.804;23.342;2023-03-18T06:57:18;74434.78;;;-148.52;81.70
3254;BME280;1639;42.804;23.342;2023-03-18T06:59:47;74387.19;;;-148.52;80.12
3254;BME280;1639;42.804;23.342;2023-03-18T07:02:13;74352.00;;;-148.52;79.42
3254;BME280;1639;42.804;23.342;2023-03-18T07:04:39;74316.84;;;-148.52;78.46
3254;BME280;1639;42.804;23.342;2023-03-18T07:07:05;74283.75;;;-148.52;77.16
3254;BME280;1639;42.804;23.342;2023-03-18T07:09:31;74267.19;;;-148.52;76.16
3254;BME280;1639;42.804;23.342;2023-03-18T07:11:58;74263.03;;;-148.52;75.66
3254;BME280;1639;42.804;23.342;2023-03-18T07:14:23;74246.50;;;-148.52;73.86
3254;BME280;1639;42.804;23.342;2023-03-18T07:16:49;74221.66;;;-148.52;73.76
3254;BME280;1639;42.804;23.342;2023-03-18T07:19:15;74207.19;;;-148.52;71.10
3254;BME280;1639;42.804;23.342;2023-03-18T07:21:42;74196.84;;;-148.52;70.54
3254;BME280;1639;42.804;23.342;2023-03-18T07:24:08;74182.38;;;-148.52;70.65
3254;BME280;1639;42.804;23.342;2023-03-18T07:26:34;74163.75;;;-148.52;70.91
3254;BME280;1639;42.804;23.342;2023-03-18T07:28:59;74159.59;;;-148.52;69.67
3254;BME280;1639;42.804;23.342;2023-03-18T07:31:25;74138.91;;;-148.52;67.77
3254;BME280;1639;42.804;23.342;2023-03-18T07:33:51;74116.16;;;-148.52;67.61
3254;BME280;1639;42.804;23.342;2023-03-18T07:36:16;74114.09;;;-148.52;67.96
3254;BME280;1639;42.804;23.342;2023-03-18T07:38:42;74097.53;;;-148.52;67.15
3254;BME280;1639;42.804;23.342;2023-03-18T07:41:07;74083.06;;;-148.52;67.96
3254;BME280;1639;42.804;23.342;2023-03-18T07:43:34;74072.72;;;-148.52;69.03
3254;BME280;1639;42.804;23.342;2023-03-18T07:46:01;74072.72;;;-148.52;67.70
3254;BME280;1639;42.804;23.342;2023-03-18T07:48:26;74037.53;;;-148.52;69.00
3254;BME280;1639;42.804;23.342;2023-03-18T07:50:52;74006.53;;;-148.52;68.02
3254;BME280;1639;42.804;23.342;2023-03-18T07:53:17;73985.81;;;-148.52;64.89
3254;BME280;1639;42.804;23.342;2023-03-18T07:55:43;73996.16;;;-148.52;65.68
3254;BME280;1639;42.804;23.342;2023-03-18T07:58:08;74002.38;;;-148.52;64.21
3254;BME280;1639;42.804;23.342;2023-03-18T08:00:34;73977.56;;;-148.52;63.78
3254;BME280;1639;42.804;23.342;2023-03-18T08:03:00;73946.53;;;-148.52;61.56
3254;BME280;1639;42.804;23.342;2023-03-18T08:05:25;73934.13;;;-148.52;60.51
3254;BME280;1639;42.804;23.342;2023-03-18T08:07:51;73894.81;;;-148.52;61.52
3254;BME280;1639;42.804;23.342;2023-03-18T08:10:18;73861.72;;;-148.52;59.63
3254;BME280;1639;42.804;23.342;2023-03-18T08:12:43;73849.28;;;-148.52;61.67
3254;BME280;1639;42.804;23.342;2023-03-18T08:15:09;73843.09;;;-148.52;60.01
3254;BME280;1639;42.804;23.342;2023-03-18T08:17:36;73820.34;;;-148.52;59.35
3254;BME280;1639;42.804;23.342;2023-03-18T08:20:02;73783.09;;;-148.52;59.18
3254;BME280;1639;42.804;23.342;2023-03-18T08:22:28;73743.78;;;-148.52;57.79
3254;BME280;1639;42.804;23.342;2023-03-18T08:24:54;73723.09;;;-148.52;55.70
3254;BME280;1639;42.804;23.342;2023-03-18T08:27:19;73706.56;;;-148.52;54.55
3254;BME280;1639;42.804;23.342;2023-03-18T08:29:45;73677.59;;;-148.52;54.90
3254;BME280;1639;42.804;23.342;2023-03-18T08:32:11;73683.81;;;-148.52;52.48
3254;BME280;1639;42.804;23.342;2023-03-18T08:34:36;73702.44;;;-148.52;55.34
3254;BME280;1639;42.804;23.342;2023-03-18T08:37:02;73673.47;;;-148.52;51.69
3254;BME280;1639;42.804;23.342;2023-03-18T08:39:29;73648.63;;;-148.52;52.42
3254;BME280;1639;42.804;23.342;2023-03-18T08:41:54;73650.72;;;-148.52;52.36
3254;BME280;1639;42.804;23.342;2023-03-18T08:44:20;73613.47;;;-148.52;51.64
3254;BME280;1639;42.804;23.342;2023-03-18T08:46:45;73586.59;;;-148.52;50.94
3254;BME280;1639;42.804;23.342;2023-03-18T08:49:10;73555.56;;;-148.52;50.66
3254;BME280;1639;42.804;23.342;2023-03-18T08:51:38;73539.00;;;-148.52;50.14
3254;BME280;1639;42.804;23.342;2023-03-18T08:54:04;73497.63;;;-148.52;50.95
3254;BME280;1639;42.804;23.342;2023-03-18T08:56:30;73559.69;;;-148.52;47.60
3254;BME280;1639;42.804;23.342;2023-03-18T08:58:55;73603.13;;;-148.52;49.06
3254;BME280;1639;42.804;23.342;2023-03-18T09:01:20;73627.97;;;-148.52;49.63
3254;BME280;1639;42.804;23.342;2023-03-18T09:03:47;73718.97;;;-148.52;51.19
3254;BME280;1639;42.804;23.342;2023-03-18T09:06:13;73735.53;;;-148.52;52.78
3254;BME280;1639;42.804;23.342;2023-03-18T09:08:38;73735.53;;;-148.52;53.15
3254;BME280;1639;42.804;23.342;2023-03-18T09:11:04;73758.28;;;-148.52;52.97
3254;BME280;1639;42.804;23.342;2023-03-18T09:13:32;73745.88;;;-148.52;53.56
3254;BME280;1639;42.804;23.342;2023-03-18T09:15:58;73687.94;;;-148.52;53.50
3254;BME280;1639;42.804;23.342;2023-03-18T09:18:23;73663.13;;;-148.52;52.14
3254;BME280;1639;42.804;23.342;2023-03-18T09:20:49;73627.97;;;-148.52;51.99
3254;BME280;1639;42.804;23.342;2023-03-18T09:23:17;73580.38;;;-148.52;50.74
3254;BME280;1639;42.804;23.342;2023-03-18T09:25:44;73588.66;;;-148.52;47.06
3254;BME280;1639;42.804;23.342;2023-03-18T09:28:10;73576.25;;;-148.52;47.83
3254;BME280;1639;42.804;23.342;2023-03-18T09:30:36;73530.75;;;-148.52;49.33
3254;BME280;1639;42.804;23.342;2023-03-18T09:33:03;73503.84;;;-148.52;47.74
3254;BME280;1639;42.804;23.342;2023-03-18T09:35:31;73501.78;;;-148.52;47.38
3254;BME280;1639;42.804;23.342;2023-03-18T09:37:56;73458.34;;;-148.52;49.69
3254;BME280;1639;42.804;23.342;2023-03-18T09:43:13;73348.72;;;-148.52;45.28
3254;BME280;1639;42.804;23.342;2023-03-18T09:48:52;73456.28;;;-148.52;45.46
3254;BME280;1639;42.804;23.342;2023-03-18T09:53:58;73594.84;;;-148.52;44.38
3254;BME280;1639;42.804;23.342;2023-03-18T09:56:29;73638.31;;;-148.52;45.46
3254;BME280;1639;42.804;23.342;2023-03-18T09:59:18;73679.66;;;-148.52;46.83
3254;BME280;1639;42.804;23.342;2023-03-18T10:01:48;73710.69;;;-148.52;48.66
3254;BME280;1639;42.804;23.342;2023-03-18T10:04:27;73733.44;;;-148.52;47.80
3254;BME280;1639;42.804;23.342;2023-03-18T10:07:05;73733.44;;;-148.52;48.04
3254;BME280;1639;42.804;23.342;2023-03-18T10:09:40;73743.78;;;-148.52;47.56
3254;BME280;1639;42.804;23.342;2023-03-18T10:12:30;73756.22;;;-148.52;47.08
3254;BME280;1639;42.804;23.342;2023-03-18T10:15:13;73762.41;;;-148.52;47.24
3254;BME280;1639;42.804;23.342;2023-03-18T10:20:53;73778.97;;;-148.52;48.44
3254;BME280;1639;42.804;23.342;2023-03-18T10:23:26;73787.25;;;-148.52;48.27
3254;BME280;1639;42.804;23.342;2023-03-18T10:26:02;73795.50;;;-148.52;50.58
3254;BME280;1639;42.804;23.342;2023-03-18T10:31:32;73747.94;;;-148.52;50.14
3254;BME280;1639;42.804;23.342;2023-03-18T10:34:15;73727.25;;;-148.52;48.92
3254;BME280;1639;42.804;23.342;2023-03-18T10:39:29;73642.44;;;-148.52;45.27
3254;BME280;1639;42.804;23.342;2023-03-18T10:41:57;73613.47;;;-148.52;42.95
3254;BME280;1639;42.804;23.342;2023-03-18T10:44:51;73611.41;;;-148.52;43.45
3254;BME280;1639;42.804;23.342;2023-03-18T10:47:26;73663.13;;;-148.52;43.80
3254;BME280;1639;42.804;23.342;2023-03-18T10:50:02;73721.03;;;-148.52;43.76
3254;BME280;1639;42.804;23.342;2023-03-18T10:54:56;73650.72;;;-148.52;45.49
3254;BME280;1639;42.804;23.342;2023-03-18T10:57:22;73580.38;;;-148.52;42.32
3254;BME280;1639;42.804;23.342;2023-03-18T10:59:49;73601.06;;;-148.52;41.67
3254;BME280;1639;42.804;23.342;2023-03-18T11:02:25;73576.25;;;-148.52;40.39
3254;BME280;1639;42.804;23.342;2023-03-18T11:10:24;73510.06;;;-148.52;42.67
3254;BME280;1639;42.804;23.342;2023-03-18T11:12:54;73485.22;;;-148.52;40.17
3254;BME280;1639;42.804;23.342;2023-03-18T11:15:22;73489.38;;;-148.52;40.35
3254;BME280;1639;42.804;23.342;2023-03-18T11:17:50;73454.19;;;-148.52;40.58
3254;BME280;1639;42.804;23.342;2023-03-18T11:22:44;73485.22;;;-148.52;39.76
3254;BME280;1639;42.804;23.342;2023-03-18T11:25:19;73522.47;;;-148.52;40.18
3254;BME280;1639;42.804;23.342;2023-03-18T11:27:52;73559.69;;;-148.52;41.43
3254;BME280;1639;42.804;23.342;2023-03-18T11:30:28;73497.63;;;-148.52;42.38
3254;BME280;1639;42.804;23.342;2023-03-18T11:33:04;73421.09;;;-148.52;40.22
3254;BME280;1639;42.804;23.342;2023-03-18T11:35:37;73466.63;;;-148.52;39.44
3254;BME280;1639;42.804;23.342;2023-03-18T11:38:04;73489.38;;;-148.52;40.45
3254;BME280;1639;42.804;23.342;2023-03-18T11:40:31;73526.59;;;-148.52;40.79
3254;BME280;1639;42.804;23.342;2023-03-18T11:43:14;73559.69;;;-148.52;39.53
3254;BME280;1639;42.804;23.342;2023-03-18T11:45:53;73592.78;;;-148.52;41.42
3254;BME280;1639;42.804;23.342;2023-03-18T11:48:29;73601.06;;;-148.52;41.98
3254;BME280;1639;42.804;23.342;2023-03-18T11:51:05;73609.34;;;-148.52;40.42
3254;BME280;1639;42.804;23.342;2023-03-18T11:54:04;73574.16;;;-148.52;40.64
3254;BME280;1639;42.804;23.342;2023-03-18T11:56:53;73545.22;;;-148.52;41.01
3254;BME280;1639;42.804;23.342;2023-03-18T12:02:27;73532.81;;;-148.52;42.50
3254;BME280;1639;42.804;23.342;2023-03-18T12:10:35;73507.97;;;-148.52;41.61
3254;BME280;1639;42.804;23.342;2023-03-18T12:15:53;73510.06;;;-148.52;41.10
3254;BME280;1639;42.804;23.342;2023-03-18T12:18:33;73479.03;;;-148.52;39.83
3254;BME280;1639;42.804;23.342;2023-03-18T12:29:56;73638.31;;;-148.52;40.52
3254;BME280;1639;42.804;23.342;2023-03-18T12:46:45;73578.31;;;-148.52;39.30
3254;BME280;1639;42.804;23.342;2023-03-18T12:49:25;73543.16;;;-148.52;39.10
3254;BME280;1639;42.804;23.342;2023-03-18T12:52:01;73557.63;;;-148.52;39.13
3254;BME280;1639;42.804;23.342;2023-03-18T12:54:35;73526.59;;;-148.52;38.80
3254;BME280;1639;42.804;23.342;2023-03-18T12:57:11;73497.63;;;-148.52;38.12
3254;BME280;1639;42.804;23.342;2023-03-18T12:59:47;73503.84;;;-148.52;39.17
3254;BME280;1639;42.804;23.342;2023-03-18T13:02:28;73505.91;;;-148.52;39.77
3254;BME280;1639;42.804;23.342;2023-03-18T13:05:03;73514.19;;;-148.52;39.06
3254;BME280;1639;42.804;23.342;2023-03-18T13:07:39;73505.91;;;-148.52;37.95
3254;BME280;1639;42.804;23.342;2023-03-18T13:10:19;73524.53;;;-148.52;37.29
3254;BME280;1639;42.804;23.342;2023-03-18T13:12:47;73522.47;;;-148.52;38.40
3254;BME280;1639;42.804;23.342;2023-03-18T13:15:29;73505.91;;;-148.52;39.16
3254;BME280;1639;42.804;23.342;2023-03-18T13:18:02;73526.59;;;-148.52;36.68
3254;BME280;1639;42.804;23.342;2023-03-18T13:20:33;73584.50;;;-148.52;37.34
3254;BME280;1639;42.804;23.342;2023-03-18T13:23:27;73592.78;;;-148.52;38.73
3254;BME280;1639;42.804;23.342;2023-03-18T13:26:18;73592.78;;;-148.52;38.38
3254;BME280;1639;42.804;23.342;2023-03-18T13:34:02;73503.84;;;-148.52;37.07
3254;BME280;1639;42.804;23.342;2023-03-18T13:42:18;73526.59;;;-148.52;37.23
3254;BME280;1639;42.804;23.342;2023-03-18T13:47:42;73501.78;;;-148.52;36.55
3254;BME280;1639;42.804;23.342;2023-03-18T13:52:44;73510.06;;;-148.52;35.89
3254;BME280;1639;42.804;23.342;2023-03-18T14:00:44;73555.56;;;-148.52;35.98
3254;BME280;1639;42.804;23.342;2023-03-18T14:05:42;73526.59;;;-148.52;35.60
3254;BME280;1639;42.804;23.342;2023-03-18T14:16:13;73518.31;;;-148.52;34.08
3254;BME280;1639;42.804;23.342;2023-03-18T14:19:06;73520.41;;;-148.52;33.47
3254;BME280;1639;42.804;23.342;2023-03-18T14:21:31;73510.06;;;-148.52;34.55
3254;BME280;1639;42.804;23.342;2023-03-18T14:24:10;73497.63;;;-148.52;33.52
3254;BME280;1639;42.804;23.342;2023-03-18T14:26:36;73491.44;;;-148.52;33.42
3254;BME280;1639;42.804;23.342;2023-03-18T14:31:48;73452.13;;;-148.52;35.12
3254;BME280;1639;42.804;23.342;2023-03-18T14:39:31;73456.28;;;-148.52;33.85
3254;BME280;1639;42.804;23.342;2023-03-18T14:42:01;73485.22;;;-148.52;34.16